createdAt,value
2018-09-29T00:00:27.997Z,76.22
2018-09-29T00:01:28.701Z,76.23
2018-09-29T00:02:27.587Z,76.18
2018-09-29T00:03:29.007Z,76.09
2018-09-29T00:04:29.392Z,75.97
2018-09-29T00:05:28.775Z,75.91
2018-09-29T00:06:30.123Z,75.88
2018-09-29T00:07:30.317Z,75.91
2018-09-29T00:08:29.761Z,75.97
2018-09-29T00:09:31.176Z,76.02
2018-09-29T00:10:31.462Z,76.06
2018-09-29T00:11:31.004Z,76.28
2018-09-29T00:12:31.763Z,76.51
2018-09-29T00:13:32.175Z,76.59
2018-09-29T00:14:31.724Z,76.48
2018-09-29T00:15:32.421Z,76.52
2018-09-29T00:16:32.802Z,76.49
2018-09-29T00:17:32.352Z,76.51
2018-09-29T00:18:33.189Z,76.62
2018-09-29T00:20:32.820Z,76.76
2018-09-29T00:21:33.623Z,77.09
2018-09-29T00:22:33.805Z,76.94
2018-09-29T00:23:33.345Z,77.07
2018-09-29T00:24:34.229Z,77.20
2018-09-29T00:25:34.613Z,77.55
2018-09-29T00:26:34.343Z,77.53
2018-09-29T00:27:35.136Z,77.67
2018-09-29T00:28:35.626Z,77.72
2018-09-29T00:29:35.371Z,77.70
2018-09-29T00:30:36.381Z,77.88
2018-09-29T00:31:36.348Z,77.91
2018-09-29T00:32:36.077Z,78.10
2018-09-29T00:33:37.046Z,78.22
2018-09-29T00:34:37.237Z,78.46
2018-09-29T00:35:36.929Z,78.56
2018-09-29T00:36:37.971Z,78.66
2018-09-29T00:37:37.973Z,78.72
2018-09-29T00:38:37.161Z,78.98
2018-09-29T00:39:38.156Z,79.00
2018-09-29T00:40:38.408Z,79.17
2018-09-29T00:41:38.069Z,79.07
2018-09-29T00:42:38.981Z,79.20
2018-09-29T00:43:39.568Z,79.18
2018-09-29T00:44:38.701Z,79.45
2018-09-29T00:45:39.752Z,79.44
2018-09-29T00:46:39.700Z,79.38
2018-09-29T00:47:39.216Z,79.79
2018-09-29T00:48:40.241Z,79.71
2018-09-29T00:49:40.067Z,80.18
2018-09-29T00:50:39.638Z,80.24
2018-09-29T00:51:40.635Z,80.46
2018-09-29T00:52:41.192Z,80.83
2018-09-29T00:53:40.084Z,81.20
2018-09-29T00:54:41.474Z,81.14
2018-09-29T00:55:41.814Z,81.13
2018-09-29T00:56:41.318Z,81.05
2018-09-29T00:57:42.191Z,80.94
2018-09-29T00:58:42.441Z,81.06
2018-09-29T00:59:41.892Z,80.98
2018-09-29T01:00:43.328Z,80.90
2018-09-29T01:01:43.693Z,81.02
2018-09-29T01:02:43.102Z,81.18
2018-09-29T01:03:44.325Z,80.91
2018-09-29T01:04:44.561Z,81.07
2018-09-29T01:05:43.986Z,80.88
2018-09-29T01:06:45.171Z,80.67
2018-09-29T01:07:45.497Z,80.72
2018-09-29T01:08:44.929Z,80.70
2018-09-29T01:09:46.221Z,80.87
2018-09-29T01:10:46.489Z,80.97
2018-09-29T01:11:46.081Z,80.91
2018-09-29T01:12:46.817Z,80.93
2018-09-29T01:13:47.112Z,80.94
2018-09-29T01:14:46.515Z,81.30
2018-09-29T01:15:47.556Z,81.73
2018-09-29T01:16:47.900Z,82.06
2018-09-29T01:17:47.286Z,82.22
2018-09-29T01:18:48.646Z,82.42
2018-09-29T01:19:49.081Z,82.43
2018-09-29T01:20:48.629Z,82.67
2018-09-29T01:21:49.617Z,82.75
2018-09-29T01:22:49.942Z,82.95
2018-09-29T01:23:49.697Z,83.03
2018-09-29T01:24:50.308Z,83.20
2018-09-29T01:25:50.887Z,83.41
2018-09-29T01:26:50.159Z,83.41
2018-09-29T01:27:50.801Z,83.57
2018-09-29T01:28:51.248Z,83.62
2018-09-29T01:29:50.976Z,84.02
2018-09-29T01:30:51.834Z,84.29
2018-09-29T01:31:52.199Z,84.08
2018-09-29T01:32:51.854Z,84.40
2018-09-29T01:33:52.694Z,84.64
2018-09-29T01:34:53.028Z,85.07
2018-09-29T01:35:52.645Z,85.17
2018-09-29T01:36:53.322Z,85.17
2018-09-29T01:37:53.498Z,85.45
2018-09-29T01:38:53.110Z,85.67
2018-09-29T01:39:53.730Z,86.02
2018-09-29T01:40:54.049Z,85.92
2018-09-29T01:41:53.667Z,86.13
2018-09-29T01:42:54.536Z,86.40
2018-09-29T01:43:54.709Z,86.59
2018-09-29T01:44:54.532Z,86.74
2018-09-29T01:45:55.088Z,87.00
2018-09-29T01:46:55.228Z,87.01
2018-09-29T01:47:54.743Z,86.95
2018-09-29T01:48:55.281Z,87.23
2018-09-29T01:49:55.530Z,87.43
2018-09-29T01:50:54.951Z,87.48
2018-09-29T01:51:56.156Z,87.60
2018-09-29T01:52:56.337Z,87.75
2018-09-29T01:53:55.870Z,87.69
2018-09-29T01:54:56.579Z,87.82
2018-09-29T01:55:56.696Z,87.91
2018-09-29T01:56:56.256Z,88.60
2018-09-29T01:57:57.199Z,88.84
2018-09-29T01:58:57.295Z,88.96
2018-09-29T01:59:56.823Z,88.95
2018-09-29T02:00:57.925Z,89.44
2018-09-29T02:01:57.971Z,89.34
2018-09-29T02:02:57.531Z,89.29
2018-09-29T02:03:58.360Z,89.25
2018-09-29T02:04:58.487Z,89.39
2018-09-29T02:05:57.753Z,89.55
2018-09-29T02:06:59.110Z,89.43
2018-09-29T02:07:59.430Z,89.57
2018-09-29T02:08:58.641Z,89.70
2018-09-29T02:09:59.846Z,89.63
2018-09-29T02:11:00.050Z,89.61
2018-09-29T02:11:59.341Z,89.83
2018-09-29T02:13:00.760Z,89.83
2018-09-29T02:14:00.417Z,89.71
2018-09-29T02:14:59.787Z,89.76
2018-09-29T02:16:00.716Z,89.79
2018-09-29T02:17:01.390Z,89.81
2018-09-29T02:18:00.802Z,89.73
2018-09-29T02:19:02.389Z,89.90
2018-09-29T02:20:02.186Z,89.72
2018-09-29T02:21:01.921Z,89.85
2018-09-29T02:22:02.864Z,89.87
2018-09-29T02:23:02.910Z,90.22
2018-09-29T02:24:02.590Z,90.09
2018-09-29T02:25:03.472Z,89.96
2018-09-29T02:26:03.845Z,89.95
2018-09-29T02:27:03.932Z,89.98
2018-09-29T02:28:04.483Z,89.86
2018-09-29T02:29:04.624Z,89.87
2018-09-29T02:30:04.451Z,90.04
2018-09-29T02:31:04.966Z,89.95
2018-09-29T02:32:04.721Z,89.95
2018-09-29T02:33:04.937Z,89.88
2018-09-29T02:34:05.543Z,89.84
2018-09-29T02:35:05.535Z,89.74
2018-09-29T02:36:05.822Z,89.67
2018-09-29T02:37:06.399Z,89.61
2018-09-29T02:38:06.201Z,89.68
2018-09-29T02:39:06.581Z,89.67
2018-09-29T02:40:07.094Z,89.65
2018-09-29T02:41:07.595Z,89.66
2018-09-29T02:42:07.219Z,89.57
2018-09-29T02:43:07.501Z,89.66
2018-09-29T02:44:07.972Z,89.67
2018-09-29T02:45:08.014Z,89.76
2018-09-29T02:46:08.420Z,90.08
2018-09-29T02:47:08.483Z,89.85
2018-09-29T02:48:08.147Z,89.76
2018-09-29T02:49:08.499Z,89.67
2018-09-29T02:50:09.103Z,89.65
2018-09-29T02:51:08.921Z,89.47
2018-09-29T02:52:09.364Z,89.34
2018-09-29T02:53:09.786Z,89.22
2018-09-29T02:54:09.964Z,89.16
2018-09-29T02:55:10.488Z,89.18
2018-09-29T02:56:10.368Z,89.11
2018-09-29T02:57:10.503Z,89.22
2018-09-29T02:58:10.923Z,89.37
2018-09-29T02:59:11.386Z,89.30
2018-09-29T03:00:11.585Z,89.67
2018-09-29T03:01:12.112Z,89.54
2018-09-29T03:02:11.792Z,89.58
2018-09-29T03:03:12.106Z,89.77
2018-09-29T03:04:12.564Z,89.77
2018-09-29T03:05:12.243Z,89.45
2018-09-29T03:06:12.795Z,89.70
2018-09-29T03:07:13.227Z,89.63
2018-09-29T03:08:12.805Z,89.58
2018-09-29T03:09:13.454Z,89.62
2018-09-29T03:10:13.784Z,89.63
2018-09-29T03:11:14.150Z,89.59
2018-09-29T03:12:14.680Z,89.83
2018-09-29T03:13:14.909Z,89.73
2018-09-29T03:14:14.606Z,89.67
2018-09-29T03:15:14.921Z,89.51
2018-09-29T03:16:15.349Z,89.43
2018-09-29T03:17:15.970Z,89.35
2018-09-29T03:18:15.536Z,89.53
2018-09-29T03:19:15.805Z,89.52
2018-09-29T03:20:15.686Z,89.71
2018-09-29T03:21:16.144Z,89.64
2018-09-29T03:22:17.047Z,89.70
2018-09-29T03:23:16.555Z,89.88
2018-09-29T03:24:17.674Z,89.88
2018-09-29T03:25:17.947Z,89.77
2018-09-29T03:26:18.185Z,89.91
2018-09-29T03:27:18.523Z,90.10
2018-09-29T03:28:18.880Z,90.26
2018-09-29T03:29:18.609Z,90.22
2018-09-29T03:30:19.754Z,90.15
2018-09-29T03:31:19.736Z,90.23
2018-09-29T03:32:19.406Z,90.25
2018-09-29T03:33:20.403Z,90.30
2018-09-29T03:34:20.438Z,90.37
2018-09-29T03:35:20.189Z,90.20
2018-09-29T03:36:21.199Z,90.23
2018-09-29T03:37:21.123Z,90.50
2018-09-29T03:38:20.877Z,90.29
2018-09-29T03:39:21.823Z,90.37
2018-09-29T03:40:22.285Z,90.46
2018-09-29T03:41:22.020Z,90.53
2018-09-29T03:42:22.997Z,90.67
2018-09-29T03:43:23.438Z,90.95
2018-09-29T03:44:22.900Z,91.04
2018-09-29T03:45:24.324Z,90.99
2018-09-29T03:46:24.662Z,91.09
2018-09-29T03:47:24.306Z,91.07
2018-09-29T03:48:25.379Z,90.91
2018-09-29T03:49:25.396Z,91.08
2018-09-29T03:50:24.319Z,91.13
2018-09-29T03:51:25.831Z,91.32
2018-09-29T03:52:26.192Z,91.19
2018-09-29T03:53:25.892Z,91.16
2018-09-29T03:54:26.676Z,91.40
2018-09-29T03:55:26.999Z,91.48
2018-09-29T03:56:26.675Z,91.50
2018-09-29T03:57:27.563Z,91.65
2018-09-29T03:58:27.992Z,91.59
2018-09-29T03:59:27.462Z,91.67
2018-09-29T04:00:28.764Z,91.49
2018-09-29T04:01:28.990Z,91.68
2018-09-29T04:02:28.415Z,91.74
2018-09-29T04:03:30.381Z,91.72
2018-09-29T04:04:30.420Z,91.69
2018-09-29T04:05:29.348Z,91.61
2018-09-29T04:06:30.599Z,91.76
2018-09-29T04:07:30.971Z,92.39
2018-09-29T04:08:30.559Z,91.90
2018-09-29T04:09:31.380Z,91.76
2018-09-29T04:10:31.659Z,91.65
2018-09-29T04:11:31.250Z,91.46
2018-09-29T04:12:31.974Z,91.65
2018-09-29T04:13:32.211Z,91.85
2018-09-29T04:14:31.725Z,91.90
2018-09-29T04:15:33.304Z,92.19
2018-09-29T04:16:33.090Z,92.12
2018-09-29T04:18:33.457Z,92.19
2018-09-29T04:19:33.812Z,92.28
2018-09-29T04:20:33.354Z,92.56
2018-09-29T04:21:34.367Z,92.75
2018-09-29T04:22:34.678Z,92.64
2018-09-29T04:23:34.407Z,92.61
2018-09-29T04:24:35.363Z,92.55
2018-09-29T04:25:36.098Z,92.65
2018-09-29T04:26:35.368Z,92.61
2018-09-29T04:27:36.334Z,92.49
2018-09-29T04:28:37.005Z,92.53
2018-09-29T04:29:36.154Z,92.42
2018-09-29T04:30:37.105Z,92.46
2018-09-29T04:31:37.587Z,92.60
2018-09-29T04:32:37.247Z,92.45
2018-09-29T04:33:38.216Z,92.42
2018-09-29T04:34:38.689Z,92.33
2018-09-29T04:35:38.325Z,92.38
2018-09-29T04:36:39.403Z,92.30
2018-09-29T04:37:39.552Z,92.22
2018-09-29T04:38:39.099Z,92.46
2018-09-29T04:39:39.970Z,92.43
2018-09-29T04:40:40.452Z,92.34
2018-09-29T04:41:39.899Z,92.37
2018-09-29T04:42:41.230Z,92.23
2018-09-29T04:43:41.646Z,92.13
2018-09-29T04:44:41.164Z,92.18
2018-09-29T04:45:41.945Z,92.15
2018-09-29T04:46:42.234Z,92.06
2018-09-29T04:47:41.604Z,92.18
2018-09-29T04:48:42.833Z,92.25
2018-09-29T04:49:43.113Z,92.14
2018-09-29T04:50:42.484Z,92.14
2018-09-29T04:51:44.102Z,92.22
2018-09-29T04:52:43.831Z,92.25
2018-09-29T04:53:43.282Z,92.28
2018-09-29T04:54:44.342Z,92.18
2018-09-29T04:55:44.669Z,92.16
2018-09-29T04:56:44.081Z,92.27
2018-09-29T04:57:45.182Z,92.36
2018-09-29T04:58:45.408Z,92.35
2018-09-29T04:59:44.851Z,92.34
2018-09-29T05:00:45.827Z,92.24
2018-09-29T05:01:47.007Z,92.24
2018-09-29T05:02:45.893Z,92.17
2018-09-29T05:03:46.973Z,92.12
2018-09-29T05:04:47.012Z,92.22
2018-09-29T05:05:46.559Z,92.24
2018-09-29T05:06:47.164Z,92.23
2018-09-29T05:07:47.483Z,92.24
2018-09-29T05:08:46.821Z,92.18
2018-09-29T05:09:47.993Z,92.11
2018-09-29T05:10:48.621Z,92.01
2018-09-29T05:11:47.698Z,91.99
2018-09-29T05:12:48.284Z,92.01
2018-09-29T05:13:48.719Z,91.98
2018-09-29T05:14:47.926Z,92.02
2018-09-29T05:15:48.610Z,91.96
2018-09-29T05:16:49.103Z,91.97
2018-09-29T05:17:48.073Z,91.73
2018-09-29T05:18:49.354Z,91.61
2018-09-29T05:19:49.800Z,91.50
2018-09-29T05:20:49.460Z,91.56
2018-09-29T05:21:50.168Z,91.53
2018-09-29T05:22:50.543Z,91.45
2018-09-29T05:23:50.299Z,91.34
2018-09-29T05:24:51.133Z,91.27
2018-09-29T05:25:51.452Z,91.20
2018-09-29T05:26:51.183Z,91.24
2018-09-29T05:27:52.036Z,91.06
2018-09-29T05:28:52.413Z,91.01
2018-09-29T05:29:52.066Z,90.90
2018-09-29T05:30:52.983Z,90.89
2018-09-29T05:31:53.261Z,90.77
2018-09-29T05:32:52.860Z,90.67
2018-09-29T05:33:53.600Z,90.59
2018-09-29T05:34:53.886Z,90.53
2018-09-29T05:35:53.528Z,90.53
2018-09-29T05:36:54.310Z,90.38
2018-09-29T05:37:54.487Z,90.33
2018-09-29T05:38:54.041Z,90.23
2018-09-29T05:39:54.820Z,90.15
2018-09-29T05:40:55.052Z,90.09
2018-09-29T05:41:54.604Z,90.05
2018-09-29T05:42:55.328Z,89.90
2018-09-29T05:43:55.612Z,89.79
2018-09-29T05:44:55.059Z,89.70
2018-09-29T05:45:56.178Z,89.50
2018-09-29T05:46:56.385Z,89.43
2018-09-29T05:47:55.808Z,89.32
2018-09-29T05:48:57.056Z,89.27
2018-09-29T05:49:57.227Z,89.25
2018-09-29T05:50:56.686Z,89.11
2018-09-29T05:51:57.441Z,89.18
2018-09-29T05:52:57.647Z,89.25
2018-09-29T05:53:57.244Z,89.38
2018-09-29T05:54:57.848Z,89.42
2018-09-29T05:55:58.039Z,89.33
2018-09-29T05:56:57.512Z,89.38
2018-09-29T05:57:58.781Z,89.38
2018-09-29T05:59:58.373Z,89.26
2018-09-29T06:00:59.297Z,89.15
2018-09-29T06:01:59.310Z,89.14
2018-09-29T06:02:58.854Z,89.03
2018-09-29T06:03:59.772Z,88.97
2018-09-29T06:05:00.031Z,88.90
2018-09-29T06:05:59.568Z,88.97
2018-09-29T06:07:00.512Z,88.82
2018-09-29T06:08:00.567Z,88.66
2018-09-29T06:09:00.119Z,88.56
2018-09-29T06:10:01.231Z,88.32
2018-09-29T06:11:01.062Z,88.28
2018-09-29T06:12:00.486Z,88.16
2018-09-29T06:13:01.927Z,88.08
2018-09-29T06:14:01.635Z,87.89
2018-09-29T06:15:01.160Z,87.87
2018-09-29T06:16:01.941Z,87.75
2018-09-29T06:17:02.264Z,87.55
2018-09-29T06:18:01.895Z,87.46
2018-09-29T06:19:03.161Z,87.36
2018-09-29T06:20:02.747Z,87.30
2018-09-29T06:21:02.494Z,87.26
2018-09-29T06:22:03.163Z,87.23
2018-09-29T06:23:03.682Z,87.15
2018-09-29T06:24:03.955Z,86.96
2018-09-29T06:25:04.437Z,86.93
2018-09-29T06:26:04.880Z,86.83
2018-09-29T06:27:05.155Z,86.71
2018-09-29T06:28:05.592Z,86.64
2018-09-29T06:29:06.046Z,86.53
2018-09-29T06:30:06.229Z,86.34
2018-09-29T06:31:06.711Z,86.32
2018-09-29T06:32:07.219Z,86.21
2018-09-29T06:33:07.004Z,86.05
2018-09-29T06:34:07.210Z,85.95
2018-09-29T06:35:07.620Z,85.89
2018-09-29T06:36:07.797Z,85.69
2018-09-29T06:37:08.130Z,85.52
2018-09-29T06:38:08.556Z,85.39
2018-09-29T06:39:08.781Z,85.35
2018-09-29T06:40:09.346Z,85.19
2018-09-29T06:41:09.780Z,84.99
2018-09-29T06:42:09.922Z,84.81
2018-09-29T06:43:10.353Z,84.64
2018-09-29T06:44:10.770Z,84.59
2018-09-29T06:45:10.782Z,84.60
2018-09-29T06:46:10.921Z,84.44
2018-09-29T06:47:11.200Z,84.08
2018-09-29T06:48:11.533Z,83.71
2018-09-29T06:49:11.805Z,83.50
2018-09-29T06:50:11.824Z,83.22
2018-09-29T06:51:11.955Z,82.92
2018-09-29T06:52:13.020Z,82.81
2018-09-29T06:53:12.293Z,82.36
2018-09-29T06:54:12.779Z,81.93
2018-09-29T06:55:13.077Z,81.90
2018-09-29T06:56:13.288Z,81.78
2018-09-29T06:57:13.266Z,81.67
2018-09-29T06:58:13.893Z,81.02
2018-09-29T06:59:14.116Z,81.06
2018-09-29T07:00:14.550Z,80.79
2018-09-29T07:01:14.914Z,80.25
2018-09-29T07:02:14.788Z,80.36
2018-09-29T07:03:15.409Z,80.24
2018-09-29T07:04:15.662Z,79.92
2018-09-29T07:05:15.163Z,79.58
2018-09-29T07:06:15.702Z,79.53
2018-09-29T07:07:15.830Z,79.27
2018-09-29T07:08:15.354Z,79.25
2018-09-29T07:09:15.900Z,78.91
2018-09-29T07:10:16.233Z,78.97
2018-09-29T07:11:15.950Z,78.75
2018-09-29T07:12:16.612Z,78.64
2018-09-29T07:13:16.944Z,78.25
2018-09-29T07:14:16.469Z,78.27
2018-09-29T07:15:17.340Z,78.07
2018-09-29T07:16:17.579Z,78.01
2018-09-29T07:17:17.765Z,77.55
2018-09-29T07:18:17.722Z,77.42
2018-09-29T07:19:17.967Z,76.99
2018-09-29T07:20:17.638Z,76.85
2018-09-29T07:21:18.371Z,76.62
2018-09-29T07:22:18.783Z,76.09
2018-09-29T07:23:18.393Z,75.85
2018-09-29T07:24:19.043Z,75.87
2018-09-29T07:25:19.544Z,75.61
2018-09-29T07:26:19.212Z,75.21
2018-09-29T07:27:20.154Z,74.94
2018-09-29T07:28:20.921Z,74.02
2018-09-29T07:29:20.895Z,73.89
2018-09-29T07:30:21.339Z,73.74
2018-09-29T07:31:21.858Z,73.17
2018-09-29T07:32:21.613Z,72.90
2018-09-29T07:33:22.719Z,72.62
2018-09-29T07:34:22.711Z,72.49
2018-09-29T07:35:22.428Z,72.29
2018-09-29T07:36:26.048Z,71.92
2018-09-29T07:37:23.692Z,71.71
2018-09-29T07:38:23.364Z,71.48
2018-09-29T07:39:24.469Z,71.17
2018-09-29T07:40:24.413Z,70.67
2018-09-29T07:41:24.298Z,70.51
2018-09-29T07:42:25.294Z,70.28
2018-09-29T07:43:25.655Z,69.77
2018-09-29T07:44:25.815Z,69.32
2018-09-29T07:45:26.310Z,68.35
2018-09-29T07:46:26.557Z,68.00
2018-09-29T07:47:25.635Z,67.94
2018-09-29T07:48:26.463Z,67.22
2018-09-29T07:49:26.799Z,66.88
2018-09-29T07:50:26.597Z,66.53
2018-09-29T07:51:27.469Z,66.10
2018-09-29T07:52:27.857Z,65.03
2018-09-29T07:53:27.434Z,64.18
2018-09-29T07:54:29.264Z,64.04
2018-09-29T07:55:29.250Z,62.66
2018-09-29T07:56:27.703Z,62.37
2018-09-29T07:57:29.795Z,61.05
2018-09-29T07:58:29.591Z,60.23
2018-09-29T07:59:28.412Z,59.09
2018-09-29T08:00:29.717Z,58.37
2018-09-29T08:01:29.987Z,57.53
2018-09-29T08:02:29.413Z,56.34
2018-09-29T08:03:30.884Z,56.59
2018-09-29T08:04:31.221Z,56.25
2018-09-29T08:05:30.739Z,55.37
2018-09-29T08:06:32.116Z,55.24
2018-09-29T08:07:32.466Z,55.06
2018-09-29T08:08:31.771Z,55.23
2018-09-29T08:09:32.985Z,55.15
2018-09-29T08:10:33.385Z,54.73
2018-09-29T08:11:32.912Z,54.34
2018-09-29T08:12:33.887Z,53.89
2018-09-29T08:13:34.224Z,53.78
2018-09-29T08:14:33.888Z,53.44
2018-09-29T08:15:34.806Z,52.73
2018-09-29T08:16:35.208Z,52.23
2018-09-29T08:17:34.953Z,52.32
2018-09-29T08:18:36.052Z,52.05
2018-09-29T08:19:36.030Z,52.00
2018-09-29T08:20:35.753Z,51.60
2018-09-29T08:21:36.727Z,51.47
2018-09-29T08:22:37.147Z,51.11
2018-09-29T08:23:36.794Z,51.06
2018-09-29T08:24:37.741Z,51.14
2018-09-29T08:25:38.400Z,50.92
2018-09-29T08:26:37.620Z,51.12
2018-09-29T08:27:38.557Z,50.82
2018-09-29T08:28:39.340Z,50.43
2018-09-29T08:29:38.170Z,50.38
2018-09-29T08:30:38.981Z,50.22
2018-09-29T08:31:39.572Z,49.93
2018-09-29T08:32:38.651Z,49.69
2018-09-29T08:33:39.799Z,49.72
2018-09-29T08:34:39.895Z,49.71
2018-09-29T08:35:39.108Z,49.72
2018-09-29T08:36:39.985Z,49.73
2018-09-29T08:37:40.547Z,49.86
2018-09-29T08:38:39.729Z,49.57
2018-09-29T08:39:41.098Z,49.06
2018-09-29T08:40:41.481Z,49.20
2018-09-29T08:41:40.969Z,49.14
2018-09-29T08:42:41.920Z,48.92
2018-09-29T08:43:42.246Z,48.91
2018-09-29T08:44:44.729Z,48.77
2018-09-29T08:45:46.827Z,49.03
2018-09-29T08:46:43.510Z,48.81
2018-09-29T08:47:43.039Z,48.62
2018-09-29T08:48:46.673Z,48.67
2018-09-29T08:49:44.400Z,48.62
2018-09-29T08:50:43.378Z,48.66
2018-09-29T08:51:44.506Z,48.05
2018-09-29T08:52:44.756Z,47.55
2018-09-29T08:53:44.156Z,47.17
2018-09-29T08:54:45.485Z,47.16
2018-09-29T08:55:45.774Z,47.26
2018-09-29T08:56:45.264Z,46.73
2018-09-29T08:57:45.980Z,46.58
2018-09-29T08:58:46.356Z,46.47
2018-09-29T08:59:45.641Z,46.27
2018-09-29T09:00:47.027Z,46.16
2018-09-29T09:01:47.278Z,45.94
2018-09-29T09:02:46.840Z,45.92
2018-09-29T09:03:47.678Z,45.91
2018-09-29T09:04:47.780Z,46.33
2018-09-29T09:05:47.199Z,46.54
2018-09-29T09:06:48.471Z,46.43
2018-09-29T09:07:48.788Z,46.34
2018-09-29T09:08:48.227Z,45.68
2018-09-29T09:09:49.498Z,46.03
2018-09-29T09:10:49.979Z,46.71
2018-09-29T09:11:49.516Z,46.32
2018-09-29T09:12:50.546Z,46.26
2018-09-29T09:13:50.425Z,46.28
2018-09-29T09:14:56.070Z,46.50
2018-09-29T09:15:51.117Z,46.63
2018-09-29T09:16:51.547Z,46.77
2018-09-29T09:17:51.144Z,46.39
2018-09-29T09:18:52.065Z,46.64
2018-09-29T09:19:52.424Z,46.41
2018-09-29T09:20:52.074Z,45.85
2018-09-29T09:21:52.885Z,45.53
2018-09-29T09:22:53.291Z,45.08
2018-09-29T09:23:52.860Z,44.32
2018-09-29T09:24:53.842Z,44.23
2018-09-29T09:25:53.588Z,43.29
2018-09-29T09:26:53.197Z,42.86
2018-09-29T09:27:54.066Z,42.59
2018-09-29T09:28:54.410Z,42.44
2018-09-29T09:29:54.080Z,42.04
2018-09-29T09:30:54.724Z,42.07
2018-09-29T09:32:54.261Z,41.81
2018-09-29T09:33:55.018Z,42.59
2018-09-29T09:34:55.515Z,42.71
2018-09-29T09:35:55.042Z,42.87
2018-09-29T09:36:55.644Z,42.98
2018-09-29T09:37:55.928Z,42.12
2018-09-29T09:38:55.296Z,41.71
2018-09-29T09:39:56.786Z,41.51
2018-09-29T09:40:56.918Z,41.19
2018-09-29T09:41:56.506Z,40.74
2018-09-29T09:42:57.414Z,40.59
2018-09-29T09:43:57.522Z,40.24
2018-09-29T09:44:56.862Z,39.90
2018-09-29T09:45:57.953Z,39.71
2018-09-29T09:46:57.980Z,39.57
2018-09-29T09:47:57.602Z,39.29
2018-09-29T09:48:58.210Z,39.53
2018-09-29T09:49:58.274Z,39.47
2018-09-29T09:50:57.600Z,39.60
2018-09-29T09:51:59.138Z,39.91
2018-09-29T09:52:58.713Z,39.54
2018-09-29T09:53:58.260Z,40.01
2018-09-29T09:54:59.074Z,39.98
2018-09-29T09:55:59.306Z,40.40
2018-09-29T09:56:58.640Z,40.66
2018-09-29T09:58:00.041Z,41.38
2018-09-29T09:59:00.087Z,41.55
2018-09-29T09:59:59.361Z,41.57
2018-09-29T10:01:00.636Z,41.05
2018-09-29T10:02:00.903Z,41.49
2018-09-29T10:03:00.316Z,41.86
2018-09-29T10:04:01.724Z,41.89
2018-09-29T10:05:01.989Z,42.03
2018-09-29T10:06:01.079Z,42.15
2018-09-29T10:07:02.380Z,42.11
2018-09-29T10:08:02.551Z,42.03
2018-09-29T10:09:02.209Z,41.62
2018-09-29T10:10:03.211Z,41.46
2018-09-29T10:11:03.560Z,41.41
2018-09-29T10:12:03.808Z,41.50
2018-09-29T10:13:04.129Z,41.57
2018-09-29T10:14:03.976Z,41.55
2018-09-29T10:15:04.249Z,41.16
2018-09-29T10:16:06.249Z,41.11
2018-09-29T10:17:05.028Z,41.59
2018-09-29T10:18:05.146Z,42.16
2018-09-29T10:19:05.581Z,42.54
2018-09-29T10:20:05.730Z,42.75
2018-09-29T10:21:05.281Z,42.83
2018-09-29T10:22:05.567Z,42.91
2018-09-29T10:23:05.816Z,43.04
2018-09-29T10:24:06.271Z,43.07
2018-09-29T10:25:06.866Z,42.83
2018-09-29T10:26:06.694Z,42.79
2018-09-29T10:27:06.972Z,42.89
2018-09-29T10:28:07.501Z,42.70
2018-09-29T10:29:07.394Z,42.67
2018-09-29T10:30:07.676Z,42.83
2018-09-29T10:31:08.236Z,42.89
2018-09-29T10:32:08.173Z,42.95
2018-09-29T10:33:08.458Z,42.94
2018-09-29T10:34:08.737Z,42.55
2018-09-29T10:35:09.115Z,42.73
2018-09-29T10:36:09.355Z,42.65
2018-09-29T10:37:09.733Z,42.51
2018-09-29T10:38:10.203Z,42.59
2018-09-29T10:39:10.436Z,42.74
2018-09-29T10:40:10.640Z,42.94
2018-09-29T10:41:11.088Z,43.01
2018-09-29T10:42:11.117Z,43.10
2018-09-29T10:43:11.514Z,43.31
2018-09-29T10:44:11.928Z,43.21
2018-09-29T10:45:12.024Z,42.84
2018-09-29T10:46:12.516Z,42.88
2018-09-29T10:47:12.879Z,42.99
2018-09-29T10:48:13.626Z,42.68
2018-09-29T10:49:12.872Z,42.20
2018-09-29T10:50:12.938Z,42.26
2018-09-29T10:51:13.376Z,42.25
2018-09-29T10:52:13.689Z,42.32
2018-09-29T10:53:13.500Z,42.16
2018-09-29T10:54:14.050Z,42.19
2018-09-29T10:55:14.530Z,42.09
2018-09-29T10:56:14.226Z,42.02
2018-09-29T10:57:14.844Z,41.86
2018-09-29T10:58:14.979Z,42.06
2018-09-29T10:59:15.480Z,41.96
2018-09-29T11:00:15.517Z,41.93
2018-09-29T11:01:15.879Z,42.14
2018-09-29T11:02:16.352Z,41.97
2018-09-29T11:03:16.705Z,42.16
2018-09-29T11:04:17.110Z,42.43
2018-09-29T11:05:17.423Z,42.60
2018-09-29T11:06:17.549Z,42.72
2018-09-29T11:07:18.044Z,42.66
2018-09-29T11:08:17.752Z,42.60
2018-09-29T11:09:18.445Z,42.53
2018-09-29T11:10:18.689Z,42.03
2018-09-29T11:11:18.395Z,42.01
2018-09-29T11:12:19.336Z,41.87
2018-09-29T11:13:19.220Z,41.73
2018-09-29T11:14:18.955Z,41.53
2018-09-29T11:15:19.962Z,41.15
2018-09-29T11:16:19.801Z,40.62
2018-09-29T11:17:19.509Z,40.05
2018-09-29T11:18:20.302Z,39.14
2018-09-29T11:19:20.863Z,38.82
2018-09-29T11:20:20.421Z,37.89
2018-09-29T11:21:20.825Z,37.33
2018-09-29T11:22:21.290Z,37.14
2018-09-29T11:23:20.567Z,36.78
2018-09-29T11:24:21.485Z,36.43
2018-09-29T11:25:21.886Z,36.12
2018-09-29T11:26:21.633Z,36.23
2018-09-29T11:27:22.530Z,35.78
2018-09-29T11:28:23.047Z,35.74
2018-09-29T11:29:22.622Z,35.39
2018-09-29T11:30:23.714Z,34.93
2018-09-29T11:31:24.085Z,34.67
2018-09-29T11:32:23.754Z,34.44
2018-09-29T11:33:24.729Z,34.77
2018-09-29T11:34:25.382Z,34.58
2018-09-29T11:35:24.403Z,34.40
2018-09-29T11:36:25.319Z,33.98
2018-09-29T11:37:25.738Z,33.86
2018-09-29T11:38:25.348Z,33.66
2018-09-29T11:39:26.307Z,33.39
2018-09-29T11:40:26.520Z,32.93
2018-09-29T11:41:26.238Z,32.65
2018-09-29T11:42:27.006Z,32.26
2018-09-29T11:43:27.258Z,32.10
2018-09-29T11:44:26.685Z,32.04
2018-09-29T11:45:28.060Z,31.74
2018-09-29T11:46:28.649Z,31.68
2018-09-29T11:47:27.776Z,31.44
2018-09-29T11:48:28.650Z,30.97
2018-09-29T11:49:29.447Z,30.76
2018-09-29T11:50:28.554Z,30.46
2018-09-29T11:51:29.616Z,30.30
2018-09-29T11:52:29.351Z,30.17
2018-09-29T11:53:28.677Z,29.80
2018-09-29T11:54:30.052Z,29.66
2018-09-29T11:55:30.404Z,29.63
2018-09-29T11:56:29.955Z,29.53
2018-09-29T11:57:31.079Z,29.56
2018-09-29T11:58:30.893Z,29.29
2018-09-29T11:59:30.399Z,29.23
2018-09-29T12:00:31.180Z,29.13
2018-09-29T12:01:31.446Z,29.02
2018-09-29T12:02:30.926Z,29.02
2018-09-29T12:03:32.312Z,29.03
2018-09-29T12:04:32.652Z,28.95
2018-09-29T12:05:31.662Z,28.81
2018-09-29T12:06:32.918Z,28.92
2018-09-29T12:07:33.357Z,29.20
2018-09-29T12:08:33.041Z,29.37
2018-09-29T12:09:33.929Z,29.45
2018-09-29T12:10:34.368Z,29.37
2018-09-29T12:11:34.114Z,29.30
2018-09-29T12:12:35.168Z,29.12
2018-09-29T12:13:34.974Z,29.06
2018-09-29T12:14:34.683Z,28.92
2018-09-29T12:15:35.585Z,29.11
2018-09-29T12:16:35.987Z,28.86
2018-09-29T12:17:35.746Z,28.76
2018-09-29T12:18:36.723Z,28.87
2018-09-29T12:19:37.169Z,28.78
2018-09-29T12:20:36.950Z,28.85
2018-09-29T12:21:37.911Z,29.33
2018-09-29T12:22:38.439Z,29.34
2018-09-29T12:23:37.675Z,29.39
2018-09-29T12:24:38.538Z,29.29
2018-09-29T12:25:39.031Z,29.14
2018-09-29T12:26:38.642Z,29.04
2018-09-29T12:27:39.592Z,29.11
2018-09-29T12:28:40.051Z,28.95
2018-09-29T12:29:39.927Z,28.95
2018-09-29T12:30:40.724Z,28.64
2018-09-29T12:31:41.029Z,28.82
2018-09-29T12:32:40.680Z,28.44
2018-09-29T12:33:41.394Z,28.18
2018-09-29T12:34:41.717Z,28.34
2018-09-29T12:35:41.183Z,28.53
2018-09-29T12:36:42.425Z,28.37
2018-09-29T12:37:42.736Z,28.68
2018-09-29T12:38:42.290Z,28.91
2018-09-29T12:39:43.407Z,29.14
2018-09-29T12:40:43.209Z,29.03
2018-09-29T12:45:44.381Z,28.54
2018-09-29T12:51:52.025Z,28.30
2018-09-29T12:52:46.639Z,28.19
2018-09-29T12:53:46.225Z,28.21
2018-09-29T12:54:46.848Z,28.04
2018-09-29T12:55:47.013Z,27.90
2018-09-29T12:56:46.591Z,27.73
2018-09-29T12:57:47.319Z,27.43
2018-09-29T12:58:47.723Z,27.22
2018-09-29T12:59:46.957Z,27.12
2018-09-29T13:00:48.106Z,26.74
2018-09-29T13:01:48.704Z,26.55
2018-09-29T13:02:47.751Z,26.50
2018-09-29T13:03:48.460Z,26.45
2018-09-29T13:04:48.934Z,26.47
2018-09-29T13:05:48.607Z,26.58
2018-09-29T13:06:49.479Z,26.67
2018-09-29T13:07:49.773Z,26.84
2018-09-29T13:08:49.445Z,26.74